Time;durP1;ratioP1;P1;durP2;ratioP2;P2;SDS_P1;SDS_P2;PMS_P1;PMS_P2;Temp;Humidity;BMP_temperature;BMP_pressure;BME280_temperature;BME280_humidity;BME280_pressure;Samples;Min_cycle;Max_cycle;Signal;HPM_P1;HPM_P2
2022/05/27 00:01:07;;;;;;;;;;;;;;;;;;5012063;28;19925;-74
2022/05/27 00:03:32;;;;;;;;;;;;;;;;;;5028007;28;19917;-74
2022/05/27 00:05:57;;;;;;;;;;;;;;;;;;5012780;28;19917;-74
2022/05/27 00:08:23;;;;;;;;;;;;;;;;;;5012912;28;19981;-74
2022/05/27 00:10:49;;;;;;;;;;;;;;;;;;5011214;28;19917;-74
2022/05/27 00:13:16;;;;;;;;;;;;;;;;;;5012602;28;19979;-74
2022/05/27 00:15:42;;;;;;;;;;;;;;;;;;5012596;28;19924;-74
2022/05/27 00:18:08;;;;;;;;;;;;;;;;;;5043473;27;19928;-74
2022/05/27 00:20:33;;;;;;;;;;;;;;;;;;5012316;28;19921;-74
2022/05/27 00:22:59;;;;;;;;;;;;;;;;;;5012498;28;19918;-74
2022/05/27 00:25:25;;;;;;;;;;;;;;;;;;5010475;28;19918;-74
2022/05/27 00:27:51;;;;;;;;;;;;;;;;;;5027579;28;19963;-74
2022/05/27 00:30:17;;;;;;;;;;;;;;;;;;5027175;28;19917;-74
2022/05/27 00:32:44;;;;;;;;;;;;;;;;;;5027347;28;19950;-74
2022/05/27 00:35:10;;;;;;;;;;;;;;;;;;5011194;28;20370;-74
2022/05/27 00:37:37;;;;;;;;;;;;;;;;;;5025939;28;19967;-74
2022/05/27 00:40:05;;;;;;;;;;;;;;;;;;5011006;28;19918;-74
2022/05/27 00:42:31;;;;;;;;;;;;;;;;;;5010970;28;20294;-74
2022/05/27 00:44:56;;;;;;;;;;;;;;;;;;5012069;28;20386;-74
2022/05/27 00:47:26;;;;;;;;;;;;;;;;;;5027022;28;20017;-74
2022/05/27 00:49:53;;;;;;;;;;;;;;;;;;5011960;28;19939;-74
2022/05/27 00:52:20;;;;;;;;;;;;;;;;;;5010906;28;20383;-74
2022/05/27 00:54:45;;;;;;;;;;;;;;;;;;5011981;28;20020;-74
2022/05/27 00:57:14;;;;;;;;;;;;;;;;;;5010587;28;19968;-74
2022/05/27 00:59:50;;;;;;;;;;;;;;;;;;5043856;28;19921;-74
2022/05/27 01:02:15;;;;;;;;;;;;;;;;;;5011684;28;20016;-74
2022/05/27 01:04:41;;;;;;;;;;;;;;;;;;5011888;28;19961;-74
2022/05/27 01:07:07;;;;;;;;;;;;;;;;;;5011680;28;19924;-75
2022/05/27 01:09:34;;;;;;;;;;;;;;;;;;5011948;28;19925;-74
2022/05/27 01:12:18;;;;;;;;;;;;;;;;;;5026793;28;19918;-74
2022/05/27 01:14:53;;;;;;;;;;;;;;;;;;5011569;28;19921;-74
2022/05/27 01:17:31;;;;;;;;;;;;;;;;;;5025608;28;19925;-75
2022/05/27 01:20:18;;;;;;;;;;;;;;;;;;5043365;28;19922;-75
2022/05/27 01:22:58;;;;;;;;;;;;;;;;;;5010918;28;19925;-75
2022/05/27 01:25:43;;;;;;;;;;;;;;;;;;5011665;28;19965;-74
2022/05/27 01:28:27;;;;;;;;;;;;;;;;;;5043594;28;20355;-74
2022/05/27 01:31:11;;;;;;;;;;;;;;;;;;5010781;28;19932;-75
2022/05/27 01:33:40;;;;;;;;;;;;;;;;;;5043368;28;19918;-77
2022/05/27 01:36:09;;;;;;;;;;;;;;;;;;5026735;28;19918;-77
2022/05/27 01:38:41;;;;;;;;;;;;;;;;;;5027032;28;19928;-77
2022/05/27 01:41:19;;;;;;;;;;;;;;;;;;5011795;28;19917;-78
2022/05/27 01:43:50;;;;;;;;;;;;;;;;;;5011846;28;20007;-78
2022/05/27 01:46:15;;;;;;;;;;;;;;;;;;5011855;28;20385;-78
2022/05/27 01:48:46;;;;;;;;;;;;;;;;;;5059243;28;19918;-77
2022/05/27 01:51:22;;;;;;;;;;;;;;;;;;5010199;28;19917;-77
2022/05/27 01:53:59;;;;;;;;;;;;;;;;;;5043485;28;19917;-77
2022/05/27 01:56:34;;;;;;;;;;;;;;;;;;5060082;28;19917;-78
2022/05/27 01:59:05;;;;;;;;;;;;;;;;;;5009907;28;19973;-77
2022/05/27 02:01:35;;;;;;;;;;;;;;;;;;5002414;28;20401;-77
2022/05/27 02:04:04;;;;;;;;;;;;;;;;;;5023091;28;20424;-77
2022/05/27 02:06:35;;;;;;;;;;;;;;;;;;5006802;28;19918;-78
2022/05/27 02:09:09;;;;;;;;;;;;;;;;;;4991955;28;19968;-77
2022/05/27 02:11:36;;;;;;;;;;;;;;;;;;5023000;28;19967;-77
2022/05/27 02:14:05;;;;;;;;;;;;;;;;;;5006522;28;19925;-77
2022/05/27 02:16:34;;;;;;;;;;;;;;;;;;5007981;28;20357;-78
2022/05/27 02:19:09;;;;;;;;;;;;;;;;;;5010971;28;20376;-78
2022/05/27 02:21:39;;;;;;;;;;;;;;;;;;5026203;28;19921;-77
2022/05/27 02:24:20;;;;;;;;;;;;;;;;;;5010088;28;20375;-77
2022/05/27 02:26:49;;;;;;;;;;;;;;;;;;5042847;28;19918;-77
2022/05/27 02:29:22;;;;;;;;;;;;;;;;;;5026212;28;19918;-77
2022/05/27 02:31:49;;;;;;;;;;;;;;;;;;5010769;28;19918;-77
2022/05/27 02:37:14;;;;;;;;;;;;;;;;;;5042166;28;19918;-77
2022/05/27 02:39:41;;;;;;;;;;;;;;;;;;5058755;28;19922;-77
2022/05/27 02:42:20;;;;;;;;;;;;;;;;;;5010672;28;19924;-77
2022/05/27 02:45:04;;;;;;;;;;;;;;;;;;5009379;28;19918;-77
2022/05/27 02:47:48;;;;;;;;;;;;;;;;;;5029133;27;19921;-77
2022/05/27 02:50:13;;;;;;;;;;;;;;;;;;5006385;28;19924;-77
2022/05/27 02:52:56;;;;;;;;;;;;;;;;;;4991283;28;20405;-77
2022/05/27 02:55:40;;;;;;;;;;;;;;;;;;5005745;28;19918;-77
2022/05/27 02:58:08;;;;;;;;;;;;;;;;;;5038389;28;19929;-77
2022/05/27 03:00:36;;;;;;;;;;;;;;;;;;5005667;28;19998;-77
2022/05/27 03:03:08;;;;;;;;;;;;;;;;;;4992879;28;19922;-77
2022/05/27 03:05:48;;;;;;;;;;;;;;;;;;5008882;28;19918;-77
2022/05/27 03:08:31;;;;;;;;;;;;;;;;;;5009308;28;19918;-77
2022/05/27 03:10:56;;;;;;;;;;;;;;;;;;5025404;28;19925;-77
2022/05/27 03:13:23;;;;;;;;;;;;;;;;;;5025363;28;19917;-77
2022/05/27 03:16:13;;;;;;;;;;;;;;;;;;5041871;28;20405;-76
2022/05/27 03:18:45;;;;;;;;;;;;;;;;;;5024434;28;20287;-76
2022/05/27 03:21:26;;;;;;;;;;;;;;;;;;5078188;28;20295;-76
2022/05/27 03:23:55;;;;;;;;;;;;;;;;;;5009113;28;19918;-77
2022/05/27 03:26:31;;;;;;;;;;;;;;;;;;5042427;27;20340;-77
2022/05/27 03:29:12;;;;;;;;;;;;;;;;;;5025176;28;19918;-76
2022/05/27 03:31:57;;;;;;;;;;;;;;;;;;5025116;28;19918;-77
2022/05/27 03:34:30;;;;;;;;;;;;;;;;;;5041861;28;19918;-76
2022/05/27 03:36:59;;;;;;;;;;;;;;;;;;5010643;28;20294;-76
2022/05/27 03:39:28;;;;;;;;;;;;;;;;;;5011606;28;19922;-76
2022/05/27 03:41:59;;;;;;;;;;;;;;;;;;4995552;28;20323;-75
2022/05/27 03:44:27;;;;;;;;;;;;;;;;;;4995611;28;19917;-76
2022/05/27 03:46:53;;;;;;;;;;;;;;;;;;5011965;28;19917;-76
2022/05/27 03:49:21;;;;;;;;;;;;;;;;;;5044770;28;20290;-76
2022/05/27 03:51:55;;;;;;;;;;;;;;;;;;5012039;28;19929;-77
2022/05/27 03:54:25;;;;;;;;;;;;;;;;;;5013921;28;19924;-77
2022/05/27 03:56:50;;;;;;;;;;;;;;;;;;5028560;28;20026;-76
2022/05/27 03:59:17;;;;;;;;;;;;;;;;;;5044560;28;20357;-77
2022/05/27 04:01:45;;;;;;;;;;;;;;;;;;5044408;27;19918;-78
2022/05/27 04:04:11;;;;;;;;;;;;;;;;;;5030905;28;19918;-78
2022/05/27 04:06:37;;;;;;;;;;;;;;;;;;5017970;27;19914;-78
2022/05/27 04:09:03;;;;;;;;;;;;;;;;;;5011660;28;19924;-77
2022/05/27 04:11:29;;;;;;;;;;;;;;;;;;5025264;28;19968;-76
2022/05/27 04:13:55;;;;;;;;;;;;;;;;;;5008296;28;19928;-76
2022/05/27 04:16:22;;;;;;;;;;;;;;;;;;5008296;28;19917;-75
2022/05/27 04:18:48;;;;;;;;;;;;;;;;;;5008029;28;19967;-76
2022/05/27 04:21:14;;;;;;;;;;;;;;;;;;5024485;28;20016;-76
2022/05/27 04:23:40;;;;;;;;;;;;;;;;;;5008067;28;19969;-75
2022/05/27 04:26:07;;;;;;;;;;;;;;;;;;5007876;28;19918;-76
2022/05/27 04:28:34;;;;;;;;;;;;;;;;;;5008001;28;19918;-76
2022/05/27 04:30:59;;;;;;;;;;;;;;;;;;4991890;28;20012;-76
2022/05/27 04:33:27;;;;;;;;;;;;;;;;;;5007769;28;20503;-76
2022/05/27 04:35:54;;;;;;;;;;;;;;;;;;5024458;28;19961;-76
2022/05/27 04:38:21;;;;;;;;;;;;;;;;;;5024235;28;20440;-76
2022/05/27 04:40:46;;;;;;;;;;;;;;;;;;5024259;28;20379;-77
2022/05/27 04:43:12;;;;;;;;;;;;;;;;;;4993126;28;19987;-78
2022/05/27 04:45:38;;;;;;;;;;;;;;;;;;5030004;28;19917;-78
2022/05/27 04:48:05;;;;;;;;;;;;;;;;;;5017713;28;20379;-78
2022/05/27 04:50:30;;;;;;;;;;;;;;;;;;5008192;28;19917;-77
2022/05/27 04:52:57;;;;;;;;;;;;;;;;;;5024177;28;20383;-76
2022/05/27 04:55:24;;;;;;;;;;;;;;;;;;5024049;28;19928;-76
2022/05/27 04:57:52;;;;;;;;;;;;;;;;;;5023988;28;19925;-76
2022/05/27 05:00:18;;;;;;;;;;;;;;;;;;5024085;28;20012;-76
2022/05/27 05:02:44;;;;;;;;;;;;;;;;;;4992432;28;20271;-76
2022/05/27 05:05:10;;;;;;;;;;;;;;;;;;5007519;28;19918;-75
2022/05/27 05:07:37;;;;;;;;;;;;;;;;;;5007522;28;19975;-76
2022/05/27 05:10:03;;;;;;;;;;;;;;;;;;4992075;28;20012;-75
2022/05/27 05:12:28;;;;;;;;;;;;;;;;;;5023842;28;19925;-75
2022/05/27 05:14:55;;;;;;;;;;;;;;;;;;5023751;28;19921;-75
2022/05/27 05:17:21;;;;;;;;;;;;;;;;;;5010544;28;19918;-75
2022/05/27 05:19:47;;;;;;;;;;;;;;;;;;5011709;28;20382;-75
2022/05/27 05:22:14;;;;;;;;;;;;;;;;;;5011785;28;19921;-75
2022/05/27 05:24:45;;;;;;;;;;;;;;;;;;5009835;28;20293;-75
2022/05/27 05:27:10;;;;;;;;;;;;;;;;;;5043289;28;20027;-75
2022/05/27 05:29:35;;;;;;;;;;;;;;;;;;5059884;28;20376;-75
2022/05/27 05:32:01;;;;;;;;;;;;;;;;;;5010588;28;19921;-75
2022/05/27 05:34:27;;;;;;;;;;;;;;;;;;5003771;28;20327;-75
2022/05/27 05:36:54;;;;;;;;;;;;;;;;;;5007000;28;19922;-75
2022/05/27 05:39:20;;;;;;;;;;;;;;;;;;4991884;28;19917;-75
2022/05/27 05:41:55;;;;;;;;;;;;;;;;;;5006872;28;20353;-75
2022/05/27 05:44:21;;;;;;;;;;;;;;;;;;5006813;28;19918;-75
2022/05/27 05:46:48;;;;;;;;;;;;;;;;;;5007068;28;20367;-75
2022/05/27 05:49:13;;;;;;;;;;;;;;;;;;4989396;28;20375;-75
2022/05/27 05:51:38;;;;;;;;;;;;;;;;;;5007304;28;19925;-74
2022/05/27 05:54:04;;;;;;;;;;;;;;;;;;5009936;28;20290;-74
2022/05/27 05:56:30;;;;;;;;;;;;;;;;;;5009521;28;19918;-77
2022/05/27 05:58:56;;;;;;;;;;;;;;;;;;5060144;28;19929;-77
2022/05/27 06:01:21;;;;;;;;;;;;;;;;;;5043387;28;19917;-77
2022/05/27 06:03:46;;;;;;;;;;;;;;;;;;5011002;28;19966;-78
2022/05/27 06:06:12;;;;;;;;;;;;;;;;;;5017912;28;19914;-79
2022/05/27 06:08:38;;;;;;;;;;;;;;;;;;5035537;28;20324;-83
2022/05/27 06:11:05;;;;;;;;;;;;;;;;;;5018453;28;19921;-80
2022/05/27 06:13:31;;;;;;;;;;;;;;;;;;5017365;28;19960;-81
2022/05/27 06:15:57;;;;;;;;;;;;;;;;;;5030001;28;19921;-77
2022/05/27 06:18:23;;;;;;;;;;;;;;;;;;5011686;28;19944;-78
2022/05/27 06:20:48;;;;;;;;;;;;;;;;;;5046337;28;19918;-78
2022/05/27 06:23:14;;;;;;;;;;;;;;;;;;5045151;28;19929;-78
2022/05/27 06:25:40;;;;;;;;;;;;;;;;;;5028390;28;19918;-79
2022/05/27 06:36:21;;;;;;;;;;;;;;;;;;5054084;28;19917;-79
2022/05/27 06:38:46;;;;;;;;;;;;;;;;;;5037114;27;19922;-79
2022/05/27 06:41:12;;;;;;;;;;;;;;;;;;5005425;28;19917;-79
2022/05/27 06:43:38;;;;;;;;;;;;;;;;;;5021306;28;19960;-79
2022/05/27 06:46:03;;;;;;;;;;;;;;;;;;5023074;28;20325;-78
2022/05/27 06:48:30;;;;;;;;;;;;;;;;;;5018671;28;19973;-78
2022/05/27 06:50:56;;;;;;;;;;;;;;;;;;5003974;28;19945;-79
2022/05/27 06:53:21;;;;;;;;;;;;;;;;;;5003627;28;19924;-78
2022/05/27 06:55:49;;;;;;;;;;;;;;;;;;5001612;28;19924;-77
2022/05/27 06:58:15;;;;;;;;;;;;;;;;;;5016511;28;20020;-81
2022/05/27 07:00:41;;;;;;;;;;;;;;;;;;4999168;28;19961;-83
2022/05/27 07:03:07;;;;;;;;;;;;;;;;;;4999954;28;19924;-81
2022/05/27 07:05:33;;;;;;;;;;;;;;;;;;5031412;28;19967;-79
2022/05/27 07:08:00;;;;;;;;;;;;;;;;;;5031305;28;19924;-79
2022/05/27 07:10:25;;;;;;;;;;;;;;;;;;5030443;28;19921;-80
2022/05/27 07:12:50;;;;;;;;;;;;;;;;;;5015352;28;19965;-79
2022/05/27 07:15:16;;;;;;;;;;;;;;;;;;5048656;28;19917;-80
2022/05/27 07:17:46;;;;;;;;;;;;;;;;;;5032786;28;19924;-81
2022/05/27 07:20:13;;;;;;;;;;;;;;;;;;5013903;28;19917;-82
2022/05/27 07:22:38;;;;;;;;;;;;;;;;;;5014014;28;19918;-84
2022/05/27 07:25:04;;;;;;;;;;;;;;;;;;5031026;28;20362;-81
2022/05/27 07:27:29;;;;;;;;;;;;;;;;;;5031593;28;19939;-83
2022/05/27 07:29:54;;;;;;;;;;;;;;;;;;5031822;28;19918;-82
2022/05/27 07:32:19;;;;;;;;;;;;;;;;;;5013099;28;19918;-82
2022/05/27 07:34:46;;;;;;;;;;;;;;;;;;5011638;28;19979;-84
2022/05/27 07:37:14;;;;;;;;;;;;;;;;;;5008757;28;19918;-84
2022/05/27 07:39:42;;;;;;;;;;;;;;;;;;5008629;28;19929;-83
2022/05/27 07:42:09;;;;;;;;;;;;;;;;;;5009398;28;20283;-84
2022/05/27 07:44:34;;;;;;;;;;;;;;;;;;5028338;28;19988;-83
2022/05/27 07:47:00;;;;;;;;;;;;;;;;;;5012672;28;20443;-83
2022/05/27 07:49:27;;;;;;;;;;;;;;;;;;5014195;28;19918;-83
2022/05/27 07:51:53;;;;;;;;;;;;;;;;;;5018714;28;19918;-82
2022/05/27 07:54:19;;;;;;;;;;;;;;;;;;5021181;28;19924;-82
2022/05/27 07:56:44;;;;;;;;;;;;;;;;;;5019122;28;20033;-82
2022/05/27 07:59:09;;;;;;;;;;;;;;;;;;5036538;28;19961;-83
2022/05/27 08:01:36;;;;;;;;;;;;;;;;;;5020571;28;19918;-82
2022/05/27 08:04:03;;;;;;;;;;;;;;;;;;5037784;28;19918;-83
2022/05/27 08:06:28;;;;;;;;;;;;;;;;;;5019283;28;19961;-83
2022/05/27 08:08:54;;;;;;;;;;;;;;;;;;5037810;28;19925;-82
2022/05/27 08:11:21;;;;;;;;;;;;;;;;;;5037357;28;19925;-83
2022/05/27 08:13:49;;;;;;;;;;;;;;;;;;5043052;28;19918;-83
2022/05/27 08:16:15;;;;;;;;;;;;;;;;;;5039060;28;19921;-82
2022/05/27 08:18:41;;;;;;;;;;;;;;;;;;5020467;28;19922;-81
2022/05/27 08:21:06;;;;;;;;;;;;;;;;;;5034171;28;19939;-82
2022/05/27 08:23:34;;;;;;;;;;;;;;;;;;5033754;28;19927;-83
2022/05/27 08:26:04;;;;;;;;;;;;;;;;;;5035125;28;19917;-82
2022/05/27 08:28:32;;;;;;;;;;;;;;;;;;5034496;28;20385;-83
2022/05/27 08:30:59;;;;;;;;;;;;;;;;;;5034406;28;19917;-82
2022/05/27 08:38:00;;;;;;;;;;;;;;;;;;5044372;28;19921;-82
2022/05/27 08:38:56;;;;;;;;;;;;;;;;;;5033860;28;19978;-82
2022/05/27 08:41:42;;;;;;;;;;;;;;;;;;5049106;28;20382;-80
2022/05/27 08:44:25;;;;;;;;;;;;;;;;;;5068593;28;19999;-81
2022/05/27 08:46:50;;;;;;;;;;;;;;;;;;5036290;28;19924;-80
2022/05/27 08:49:26;;;;;;;;;;;;;;;;;;5018885;28;19918;-80
2022/05/27 08:51:57;;;;;;;;;;;;;;;;;;5067968;27;20439;-81
2022/05/27 08:54:27;;;;;;;;;;;;;;;;;;5018509;28;19923;-80
2022/05/27 08:59:45;;;;;;;;;;;;;;;;;;5027543;28;19965;-79
2022/05/27 09:02:30;;;;;;;;;;;;;;;;;;5099002;28;19918;-79
2022/05/27 09:05:06;;;;;;;;;;;;;;;;;;5028315;28;19917;-79
2022/05/27 09:07:46;;;;;;;;;;;;;;;;;;5108270;27;19947;-80
2022/05/27 09:10:17;;;;;;;;;;;;;;;;;;5015745;28;19921;-80
2022/05/27 09:12:58;;;;;;;;;;;;;;;;;;5017280;28;19918;-81
2022/05/27 09:15:37;;;;;;;;;;;;;;;;;;5048205;28;19921;-81
2022/05/27 09:18:21;;;;;;;;;;;;;;;;;;5065837;27;19925;-82
2022/05/27 09:20:47;;;;;;;;;;;;;;;;;;5061335;28;19917;-77
2022/05/27 09:23:30;;;;;;;;;;;;;;;;;;5047253;28;20366;-82
2022/05/27 09:26:34;;;;;;;;;;;;;;;;;;5033699;28;20435;-80
2022/05/27 09:29:10;;;;;;;;;;;;;;;;;;5080180;28;20421;-82
2022/05/27 09:31:37;;;;;;;;;;;;;;;;;;5098848;28;19986;-81
2022/05/27 09:34:03;;;;;;;;;;;;;;;;;;5054976;28;19940;-82
2022/05/27 09:36:39;;;;;;;;;;;;;;;;;;5031640;28;20302;-81
2022/05/27 09:39:10;;;;;;;;;;;;;;;;;;5032373;28;19947;-80
2022/05/27 09:42:03;;;;;;;;;;;;;;;;;;5013903;28;19922;-79
2022/05/27 09:44:38;;;;;;;;;;;;;;;;;;5047873;28;20298;-81
2022/05/27 09:47:08;;;;;;;;;;;;;;;;;;5048768;28;20012;-80
2022/05/27 09:49:34;;;;;;;;;;;;;;;;;;5014537;28;19956;-81
2022/05/27 09:52:01;;;;;;;;;;;;;;;;;;5031271;28;19963;-81
2022/05/27 09:54:45;;;;;;;;;;;;;;;;;;5014021;28;19917;-77
2022/05/27 09:57:10;;;;;;;;;;;;;;;;;;5044557;28;19928;-79
2022/05/27 09:59:36;;;;;;;;;;;;;;;;;;5029680;28;20015;-79
2022/05/27 10:02:21;;;;;;;;;;;;;;;;;;5056051;27;19924;-79
2022/05/27 10:05:02;;;;;;;;;;;;;;;;;;5027911;28;20294;-81
2022/05/27 10:07:34;;;;;;;;;;;;;;;;;;5011081;28;19917;-79
2022/05/27 10:10:18;;;;;;;;;;;;;;;;;;5011986;28;19960;-79
2022/05/27 10:12:44;;;;;;;;;;;;;;;;;;5028426;28;19964;-81
2022/05/27 10:15:26;;;;;;;;;;;;;;;;;;5027593;28;19965;-80
2022/05/27 10:17:53;;;;;;;;;;;;;;;;;;5027339;28;19925;-81
2022/05/27 10:20:22;;;;;;;;;;;;;;;;;;5026035;28;19918;-79
2022/05/27 10:22:58;;;;;;;;;;;;;;;;;;5027218;28;19918;-80
2022/05/27 10:25:53;;;;;;;;;;;;;;;;;;5024645;28;20483;-78
2022/05/27 10:28:27;;;;;;;;;;;;;;;;;;5011237;28;19925;-78
2022/05/27 10:30:55;;;;;;;;;;;;;;;;;;5034417;28;19917;-78
2022/05/27 10:33:34;;;;;;;;;;;;;;;;;;5052039;28;20289;-79
2022/05/27 10:36:00;;;;;;;;;;;;;;;;;;5054526;28;20397;-78
2022/05/27 10:38:41;;;;;;;;;;;;;;;;;;5017254;28;20004;-79
2022/05/27 10:41:11;;;;;;;;;;;;;;;;;;5035872;28;19917;-78
2022/05/27 10:43:39;;;;;;;;;;;;;;;;;;5049591;28;19923;-79
2022/05/27 10:46:07;;;;;;;;;;;;;;;;;;5065893;28;19921;-79
2022/05/27 10:48:56;;;;;;;;;;;;;;;;;;5050072;28;19928;-79
2022/05/27 10:51:27;;;;;;;;;;;;;;;;;;5029730;28;19917;-77
2022/05/27 10:53:59;;;;;;;;;;;;;;;;;;5031431;28;19917;-79
2022/05/27 10:56:40;;;;;;;;;;;;;;;;;;5046846;28;20379;-78
2022/05/27 11:02:10;;;;;;;;;;;;;;;;;;5044959;28;19974;-78
2022/05/27 11:04:45;;;;;;;;;;;;;;;;;;5051927;28;19939;-79
2022/05/27 11:07:19;;;;;;;;;;;;;;;;;;5034870;28;19980;-79
2022/05/27 11:09:51;;;;;;;;;;;;;;;;;;5013356;28;19928;-78
2022/05/27 11:12:22;;;;;;;;;;;;;;;;;;5012114;28;19918;-78
2022/05/27 11:15:12;;;;;;;;;;;;;;;;;;5018890;28;19970;-81
2022/05/27 11:17:49;;;;;;;;;;;;;;;;;;5005395;28;19924;-81
2022/05/27 11:20:24;;;;;;;;;;;;;;;;;;5004519;28;20020;-81
2022/05/27 11:22:50;;;;;;;;;;;;;;;;;;5002603;28;19921;-80
2022/05/27 11:25:26;;;;;;;;;;;;;;;;;;5019097;28;19924;-80
2022/05/27 11:28:20;;;;;;;;;;;;;;;;;;5004478;28;20379;-80
2022/05/27 11:30:55;;;;;;;;;;;;;;;;;;5014704;28;19921;-81
2022/05/27 11:33:27;;;;;;;;;;;;;;;;;;5056824;28;19917;-80
2022/05/27 11:36:11;;;;;;;;;;;;;;;;;;5019512;28;19917;-79
2022/05/27 11:38:52;;;;;;;;;;;;;;;;;;5020229;28;19969;-80
2022/05/27 11:41:25;;;;;;;;;;;;;;;;;;5052101;28;20421;-79
2022/05/27 11:43:59;;;;;;;;;;;;;;;;;;5067872;27;19917;-81
2022/05/27 11:46:31;;;;;;;;;;;;;;;;;;5065535;28;19921;-77
2022/05/27 11:49:10;;;;;;;;;;;;;;;;;;5032291;28;19917;-78
2022/05/27 11:51:56;;;;;;;;;;;;;;;;;;5049386;28;20362;-80
2022/05/27 11:54:27;;;;;;;;;;;;;;;;;;5038090;28;20410;-79
2022/05/27 11:57:15;;;;;;;;;;;;;;;;;;5023846;28;19917;-80
2022/05/27 11:59:52;;;;;;;;;;;;;;;;;;5039150;28;19925;-79
2022/05/27 12:02:33;;;;;;;;;;;;;;;;;;5038473;28;19965;-79
2022/05/27 12:05:14;;;;;;;;;;;;;;;;;;5030276;28;19965;-78
2022/05/27 12:07:42;;;;;;;;;;;;;;;;;;5013799;28;20391;-85
2022/05/27 12:10:16;;;;;;;;;;;;;;;;;;5053438;28;19960;-80
2022/05/27 12:13:00;;;;;;;;;;;;;;;;;;5020849;28;19921;-83
2022/05/27 12:15:35;;;;;;;;;;;;;;;;;;5035881;28;20371;-82
2022/05/27 12:18:01;;;;;;;;;;;;;;;;;;5054453;27;19925;-78
2022/05/27 12:20:31;;;;;;;;;;;;;;;;;;5019790;28;20335;-81
2022/05/27 12:23:00;;;;;;;;;;;;;;;;;;5023194;28;19924;-81
2022/05/27 12:25:30;;;;;;;;;;;;;;;;;;5024368;28;19921;-80
2022/05/27 12:27:58;;;;;;;;;;;;;;;;;;5058212;28;19924;-82
2022/05/27 12:30:55;;;;;;;;;;;;;;;;;;5048439;28;20366;-80
2022/05/27 12:33:23;;;;;;;;;;;;;;;;;;5014503;28;19917;-80
2022/05/27 12:36:14;;;;;;;;;;;;;;;;;;5033835;28;19918;-81
2022/05/27 12:38:47;;;;;;;;;;;;;;;;;;5019866;28;19982;-80
2022/05/27 12:41:15;;;;;;;;;;;;;;;;;;5036510;28;19995;-81
2022/05/27 12:43:55;;;;;;;;;;;;;;;;;;5044345;28;20279;-79
2022/05/27 12:46:32;;;;;;;;;;;;;;;;;;5038264;28;19923;-78
2022/05/27 12:49:16;;;;;;;;;;;;;;;;;;5051047;28;19957;-78
2022/05/27 12:51:44;;;;;;;;;;;;;;;;;;5036000;28;19917;-78
2022/05/27 12:54:09;;;;;;;;;;;;;;;;;;5036079;28;20081;-78
2022/05/27 13:02:20;;;;;;;;;;;;;;;;;;5036881;28;20003;-78
2022/05/27 13:04:47;;;;;;;;;;;;;;;;;;5018946;28;20431;-78
2022/05/27 13:07:13;;;;;;;;;;;;;;;;;;5050894;28;19917;-77
2022/05/27 13:09:42;;;;;;;;;;;;;;;;;;5035465;28;19924;-78
2022/05/27 13:12:12;;;;;;;;;;;;;;;;;;5049766;28;19916;-78
2022/05/27 13:14:46;;;;;;;;;;;;;;;;;;5066637;27;19917;-78
2022/05/27 13:17:32;;;;;;;;;;;;;;;;;;5034584;28;20421;-77
2022/05/27 13:20:02;;;;;;;;;;;;;;;;;;5035096;28;19921;-78
2022/05/27 13:22:33;;;;;;;;;;;;;;;;;;5071071;28;19977;-79
2022/05/27 13:25:17;;;;;;;;;;;;;;;;;;5052306;28;19917;-78
2022/05/27 13:27:42;;;;;;;;;;;;;;;;;;5025906;28;19918;-78
2022/05/27 13:30:12;;;;;;;;;;;;;;;;;;5032171;28;19918;-78
2022/05/27 13:33:14;;;;;;;;;;;;;;;;;;5031990;28;19918;-78
2022/05/27 13:35:42;;;;;;;;;;;;;;;;;;5080561;28;19916;-78
2022/05/27 13:38:16;;;;;;;;;;;;;;;;;;5028271;28;19921;-78
2022/05/27 13:40:43;;;;;;;;;;;;;;;;;;5065564;28;19917;-78
2022/05/27 13:43:11;;;;;;;;;;;;;;;;;;5032796;28;19924;-78
2022/05/27 13:45:47;;;;;;;;;;;;;;;;;;5034988;28;19943;-78
2022/05/27 13:48:15;;;;;;;;;;;;;;;;;;5017158;28;19945;-78
2022/05/27 13:50:42;;;;;;;;;;;;;;;;;;5015640;28;19963;-79
2022/05/27 13:53:19;;;;;;;;;;;;;;;;;;5034692;28;19923;-78
2022/05/27 13:55:45;;;;;;;;;;;;;;;;;;5063471;28;19922;-78
2022/05/27 13:58:11;;;;;;;;;;;;;;;;;;5016461;28;19927;-78
2022/05/27 14:00:40;;;;;;;;;;;;;;;;;;5045692;28;19966;-78
2022/05/27 14:03:05;;;;;;;;;;;;;;;;;;5028681;28;19938;-78
2022/05/27 14:05:31;;;;;;;;;;;;;;;;;;5029984;28;20000;-78
2022/05/27 14:07:58;;;;;;;;;;;;;;;;;;5032995;28;19914;-79
2022/05/27 14:10:40;;;;;;;;;;;;;;;;;;5033213;28;19974;-79
2022/05/27 14:13:17;;;;;;;;;;;;;;;;;;5033715;28;19963;-78
2022/05/27 14:15:43;;;;;;;;;;;;;;;;;;5033147;28;19977;-78
2022/05/27 14:18:08;;;;;;;;;;;;;;;;;;5043312;28;20334;-78
2022/05/27 14:23:26;;;;;;;;;;;;;;;;;;5030513;28;19917;-77
2022/05/27 14:26:01;;;;;;;;;;;;;;;;;;5014715;28;20282;-78
2022/05/27 14:28:35;;;;;;;;;;;;;;;;;;5030887;28;19939;-78
2022/05/27 14:31:18;;;;;;;;;;;;;;;;;;5030834;28;20022;-77
2022/05/27 14:33:49;;;;;;;;;;;;;;;;;;5049895;28;19917;-78
2022/05/27 14:36:15;;;;;;;;;;;;;;;;;;5049462;28;20008;-78
2022/05/27 14:38:41;;;;;;;;;;;;;;;;;;5030544;28;19939;-77
2022/05/27 14:41:11;;;;;;;;;;;;;;;;;;5065001;27;19925;-77
2022/05/27 14:43:49;;;;;;;;;;;;;;;;;;5061505;28;19917;-77
2022/05/27 14:46:18;;;;;;;;;;;;;;;;;;5031266;28;20435;-78
2022/05/27 14:48:45;;;;;;;;;;;;;;;;;;5033684;28;19966;-84
2022/05/27 14:51:12;;;;;;;;;;;;;;;;;;5051983;28;20377;-79
2022/05/27 14:53:38;;;;;;;;;;;;;;;;;;5032700;28;20419;-78
2022/05/27 14:56:03;;;;;;;;;;;;;;;;;;5023993;28;19918;-79
2022/05/27 14:58:31;;;;;;;;;;;;;;;;;;5024306;28;20016;-80
2022/05/27 15:00:56;;;;;;;;;;;;;;;;;;5061553;28;19966;-80
2022/05/27 15:03:28;;;;;;;;;;;;;;;;;;5032239;28;19929;-81
2022/05/27 15:06:07;;;;;;;;;;;;;;;;;;5041931;28;20283;-79
2022/05/27 15:08:34;;;;;;;;;;;;;;;;;;5046801;27;19957;-78
2022/05/27 15:11:09;;;;;;;;;;;;;;;;;;5020620;28;19935;-80
2022/05/27 15:13:43;;;;;;;;;;;;;;;;;;5043097;27;19985;-78
2022/05/27 15:16:10;;;;;;;;;;;;;;;;;;5064511;28;19918;-79
2022/05/27 15:18:41;;;;;;;;;;;;;;;;;;5018630;28;19925;-79
2022/05/27 15:21:10;;;;;;;;;;;;;;;;;;5019147;28;19917;-80
2022/05/27 15:23:46;;;;;;;;;;;;;;;;;;5032616;28;19925;-79
2022/05/27 15:34:42;;;;;;;;;;;;;;;;;;5022427;28;19924;-82
2022/05/27 15:37:07;;;;;;;;;;;;;;;;;;5001466;28;19918;-82
2022/05/27 15:39:35;;;;;;;;;;;;;;;;;;5016319;28;19922;-82
2022/05/27 15:42:01;;;;;;;;;;;;;;;;;;5000837;28;19918;-82
2022/05/27 15:44:26;;;;;;;;;;;;;;;;;;5017669;28;20291;-83
2022/05/27 15:46:52;;;;;;;;;;;;;;;;;;4998255;28;19924;-81
2022/05/27 15:49:20;;;;;;;;;;;;;;;;;;5012355;28;19985;-81
2022/05/27 15:51:46;;;;;;;;;;;;;;;;;;5017095;28;19970;-82
2022/05/27 15:54:12;;;;;;;;;;;;;;;;;;5001765;28;19918;-82
2022/05/27 15:56:37;;;;;;;;;;;;;;;;;;5017018;28;19917;-81
2022/05/27 15:59:03;;;;;;;;;;;;;;;;;;5000266;28;20499;-82
2022/05/27 16:01:29;;;;;;;;;;;;;;;;;;5000190;28;19999;-82
2022/05/27 16:03:57;;;;;;;;;;;;;;;;;;5001137;28;20397;-82
2022/05/27 16:06:22;;;;;;;;;;;;;;;;;;5017401;28;20446;-82
2022/05/27 16:08:49;;;;;;;;;;;;;;;;;;5018000;28;19921;-82
2022/05/27 16:11:15;;;;;;;;;;;;;;;;;;5016701;28;19949;-82
2022/05/27 16:13:43;;;;;;;;;;;;;;;;;;5001199;28;19917;-82
2022/05/27 16:18:52;;;;;;;;;;;;;;;;;;5050530;28;19927;-82
2022/05/27 16:21:18;;;;;;;;;;;;;;;;;;5033613;28;19958;-82
2022/05/27 16:23:44;;;;;;;;;;;;;;;;;;5017468;28;19918;-82
2022/05/27 16:26:10;;;;;;;;;;;;;;;;;;5033676;28;19956;-82
2022/05/27 16:28:36;;;;;;;;;;;;;;;;;;5032865;28;19917;-82
2022/05/27 16:31:01;;;;;;;;;;;;;;;;;;5008169;28;20435;-82
2022/05/27 16:33:27;;;;;;;;;;;;;;;;;;5013334;28;19950;-82
2022/05/27 16:35:54;;;;;;;;;;;;;;;;;;4998601;28;19918;-82
2022/05/27 16:38:19;;;;;;;;;;;;;;;;;;5013474;28;19925;-82
2022/05/27 16:40:45;;;;;;;;;;;;;;;;;;5013301;28;19921;-82
2022/05/27 16:43:10;;;;;;;;;;;;;;;;;;5007072;28;20012;-82
2022/05/27 16:45:35;;;;;;;;;;;;;;;;;;5099922;28;19929;-82
2022/05/27 16:48:01;;;;;;;;;;;;;;;;;;5013261;28;19917;-82
2022/05/27 16:50:28;;;;;;;;;;;;;;;;;;5099371;28;20355;-82
2022/05/27 16:52:54;;;;;;;;;;;;;;;;;;5099014;28;20432;-82
2022/05/27 16:55:19;;;;;;;;;;;;;;;;;;5029088;28;19910;-81
2022/05/27 16:57:45;;;;;;;;;;;;;;;;;;4997995;28;20436;-82
2022/05/27 17:00:15;;;;;;;;;;;;;;;;;;5013182;28;19922;-83
2022/05/27 17:02:42;;;;;;;;;;;;;;;;;;5099975;28;20004;-82
2022/05/27 17:05:08;;;;;;;;;;;;;;;;;;5013414;28;20279;-82
2022/05/27 17:07:34;;;;;;;;;;;;;;;;;;5013184;28;19924;-82
2022/05/27 17:09:59;;;;;;;;;;;;;;;;;;4997525;28;19997;-82
2022/05/27 17:12:25;;;;;;;;;;;;;;;;;;5029214;28;20375;-82
2022/05/27 17:14:51;;;;;;;;;;;;;;;;;;5012669;28;19924;-81
2022/05/27 17:17:16;;;;;;;;;;;;;;;;;;4997302;28;19918;-81
2022/05/27 17:19:42;;;;;;;;;;;;;;;;;;5018481;28;19944;-81
2022/05/27 17:22:08;;;;;;;;;;;;;;;;;;4996006;28;19949;-81
2022/05/27 17:24:34;;;;;;;;;;;;;;;;;;5012586;28;19914;-81
2022/05/27 17:27:01;;;;;;;;;;;;;;;;;;5012397;28;19940;-81
2022/05/27 17:29:30;;;;;;;;;;;;;;;;;;5011938;28;19949;-81
2022/05/27 17:31:55;;;;;;;;;;;;;;;;;;5012260;28;19921;-81
2022/05/27 17:34:22;;;;;;;;;;;;;;;;;;5009933;28;20337;-81
2022/05/27 17:36:48;;;;;;;;;;;;;;;;;;5015301;28;19917;-81
2022/05/27 17:39:16;;;;;;;;;;;;;;;;;;5015008;28;19950;-81
2022/05/27 17:41:42;;;;;;;;;;;;;;;;;;5016982;28;19928;-81
2022/05/27 17:44:08;;;;;;;;;;;;;;;;;;5031780;28;19917;-81
2022/05/27 17:52:04;;;;;;;;;;;;;;;;;;5047631;28;19917;-81